Time;durP1;ratioP1;P1;durP2;ratioP2;P2;SDS_P1;SDS_P2;PMS_P1;PMS_P2;Temp;Humidity;BMP_temperature;BMP_pressure;BME280_temperature;BME280_humidity;BME280_pressure;Samples;Min_cycle;Max_cycle;Signal;HPM_P1;HPM_P2
2023/07/01 00:01:51;;;;;;;14.07;12.77;;;22.90;99.90;;;;;;5129849;27;20192;-79
2023/07/01 00:04:17;;;;;;;14.33;12.00;;;22.90;99.90;;;;;;5132131;27;20228;-78
2023/07/01 00:06:42;;;;;;;12.47;11.17;;;22.80;99.90;;;;;;5132193;27;20777;-79
2023/07/01 00:09:12;;;;;;;16.33;13.13;;;22.80;99.90;;;;;;5131893;27;20179;-79
2023/07/01 00:11:38;;;;;;;17.90;12.67;;;22.80;99.90;;;;;;5130683;27;20356;-78
2023/07/01 00:14:04;;;;;;;12.80;11.60;;;22.70;99.90;;;;;;5132104;27;20467;-79
2023/07/01 00:16:30;;;;;;;14.27;12.80;;;22.70;99.90;;;;;;5132250;27;20415;-78
2023/07/01 00:18:56;;;;;;;14.53;13.03;;;22.70;99.90;;;;;;5132021;27;20391;-79
2023/07/01 00:21:21;;;;;;;13.83;12.47;;;22.70;99.90;;;;;;5131882;27;20490;-78
2023/07/01 00:23:47;;;;;;;14.30;12.90;;;22.70;99.90;;;;;;5131716;27;20171;-78
2023/07/01 00:26:13;;;;;;;14.27;12.03;;;22.70;99.90;;;;;;5130567;27;20519;-79
2023/07/01 00:28:38;;;;;;;14.30;12.90;;;22.60;99.90;;;;;;5132152;27;20164;-78
2023/07/01 00:31:04;;;;;;;14.37;12.97;;;22.60;99.90;;;;;;5130012;27;20635;-78
2023/07/01 00:33:29;;;;;;;13.07;11.80;;;22.60;99.90;;;;;;5130577;27;20553;-78
2023/07/01 00:35:55;;;;;;;13.60;12.30;;;22.50;99.90;;;;;;5131760;27;20317;-78
2023/07/01 00:38:21;;;;;;;15.37;13.87;;;22.50;99.90;;;;;;5131736;27;20207;-78
2023/07/01 00:40:46;;;;;;;13.27;12.00;;;22.40;99.90;;;;;;5130222;27;20214;-78
2023/07/01 00:43:12;;;;;;;15.63;14.00;;;22.30;99.90;;;;;;5131858;27;20553;-78
2023/07/01 00:45:38;;;;;;;14.43;12.13;;;22.30;99.90;;;;;;5130868;27;20199;-79
2023/07/01 00:48:04;;;;;;;13.90;12.40;;;22.30;99.90;;;;;;5131347;27;20427;-79
2023/07/01 00:50:30;;;;;;;14.40;13.10;;;22.20;99.90;;;;;;5129220;27;20231;-78
2023/07/01 00:52:56;;;;;;;16.30;14.60;;;22.20;99.90;;;;;;5129690;27;20191;-78
2023/07/01 00:55:22;;;;;;;14.87;13.33;;;22.20;99.90;;;;;;5131333;27;20926;-78
2023/07/01 00:57:47;;;;;;;15.57;13.37;;;22.20;99.90;;;;;;5130977;27;20818;-78
2023/07/01 01:00:14;;;;;;;15.50;13.60;;;22.10;99.90;;;;;;5130956;27;20302;-78
2023/07/01 01:02:55;;;;;;;14.50;13.17;;;22.10;99.90;;;;;;5131100;27;20199;-78
2023/07/01 01:05:47;;;;;;;16.07;13.10;;;22.10;99.90;;;;;;5131295;27;20429;-78
2023/07/01 01:08:20;;;;;;;14.87;13.23;;;22.00;99.90;;;;;;5091988;27;20476;-78
2023/07/01 01:10:47;;;;;;;15.30;12.80;;;21.90;99.90;;;;;;5128909;27;20478;-78
2023/07/01 01:13:15;;;;;;;14.50;13.00;;;21.90;99.90;;;;;;5130537;27;20423;-79
2023/07/01 01:15:41;;;;;;;14.50;13.20;;;21.90;99.90;;;;;;5130871;27;20418;-79
2023/07/01 01:18:10;;;;;;;13.93;12.47;;;21.90;99.90;;;;;;5131018;27;20799;-79
2023/07/01 01:20:39;;;;;;;14.53;13.17;;;21.80;99.90;;;;;;5129271;27;20474;-78
2023/07/01 01:23:13;;;;;;;15.07;13.63;;;21.80;99.90;;;;;;5129397;27;20428;-78
2023/07/01 01:26:05;;;;;;;14.63;12.80;;;21.70;99.90;;;;;;5130609;27;20415;-78
2023/07/01 01:28:32;;;;;;;14.87;13.43;;;21.70;99.90;;;;;;5130861;27;20399;-79
2023/07/01 01:30:58;;;;;;;15.43;13.80;;;21.60;99.90;;;;;;5130690;27;20821;-78
2023/07/01 01:33:25;;;;;;;15.97;14.37;;;21.60;99.90;;;;;;5130639;27;20426;-79
2023/07/01 01:35:51;;;;;;;15.43;13.93;;;21.50;99.90;;;;;;5130382;27;20459;-78
2023/07/01 01:38:25;;;;;;;18.03;14.50;;;21.60;99.90;;;;;;5129114;27;20427;-79
2023/07/01 01:41:03;;;;;;;17.30;15.67;;;21.50;99.90;;;;;;5129691;27;20467;-78
2023/07/01 01:43:37;;;;;;;15.83;14.43;;;21.50;99.90;;;;;;5130322;27;20525;-78
2023/07/01 01:46:05;;;;;;;16.60;14.90;;;21.50;99.90;;;;;;5129489;27;20792;-78
2023/07/01 01:48:31;;;;;;;15.17;13.73;;;21.40;99.90;;;;;;5130006;27;20415;-79
2023/07/01 01:50:58;;;;;;;15.50;14.10;;;21.40;99.90;;;;;;5129875;27;20510;-79
2023/07/01 01:53:27;;;;;;;16.87;15.07;;;21.40;99.90;;;;;;5128925;27;20431;-78
2023/07/01 01:55:54;;;;;;;20.70;16.60;;;21.30;99.90;;;;;;5130000;27;20427;-78
2023/07/01 01:58:20;;;;;;;15.63;14.13;;;21.30;99.90;;;;;;5128676;27;20959;-78
2023/07/01 02:00:46;;;;;;;18.20;16.43;;;21.30;99.90;;;;;;5129579;27;20570;-78
2023/07/01 02:03:12;;;;;;;17.87;16.03;;;21.20;99.90;;;;;;5129982;27;20420;-79
2023/07/01 02:05:37;;;;;;;18.57;16.87;;;21.20;99.90;;;;;;5129681;27;20462;-78
2023/07/01 02:08:04;;;;;;;17.87;16.20;;;21.20;99.90;;;;;;5130462;27;20195;-78
2023/07/01 02:10:32;;;;;;;20.70;18.30;;;21.10;99.90;;;;;;5129797;27;20171;-78
2023/07/01 02:12:58;;;;;;;20.70;17.83;;;21.10;99.90;;;;;;5128345;27;20426;-78
2023/07/01 02:15:23;;;;;;;19.40;17.73;;;21.10;99.90;;;;;;5128422;27;20438;-78
2023/07/01 02:17:49;;;;;;;17.37;15.87;;;21.10;99.90;;;;;;5128257;27;20202;-78
2023/07/01 02:20:15;;;;;;;19.80;17.83;;;21.10;99.90;;;;;;5127987;27;20215;-79
2023/07/01 02:22:41;;;;;;;19.93;17.87;;;21.10;99.90;;;;;;5129670;27;20191;-78
2023/07/01 02:25:07;;;;;;;19.53;17.83;;;21.10;99.90;;;;;;5128629;27;20768;-78
2023/07/01 02:27:33;;;;;;;20.33;18.20;;;21.20;99.90;;;;;;5129421;27;20198;-78
2023/07/01 02:29:58;;;;;;;18.40;16.80;;;21.20;99.90;;;;;;5129100;27;20411;-78
2023/07/01 02:32:25;;;;;;;18.10;16.47;;;21.10;99.90;;;;;;5129325;27;20610;-79
2023/07/01 02:34:51;;;;;;;19.60;17.80;;;21.10;99.90;;;;;;5128007;27;20365;-78
2023/07/01 02:37:17;;;;;;;19.13;17.30;;;21.00;99.90;;;;;;5127935;27;20506;-79
2023/07/01 02:39:45;;;;;;;18.63;16.87;;;21.00;99.90;;;;;;5128543;27;20542;-79
2023/07/01 02:42:11;;;;;;;18.37;16.73;;;20.90;99.90;;;;;;5128227;27;20784;-78
2023/07/01 02:44:37;;;;;;;20.70;17.30;;;20.80;99.90;;;;;;5127537;27;20430;-78
2023/07/01 02:47:03;;;;;;;19.63;16.87;;;20.80;99.90;;;;;;5127748;27;20203;-78
2023/07/01 02:49:28;;;;;;;20.37;17.23;;;20.70;99.90;;;;;;5128540;27;20573;-78
2023/07/01 02:51:54;;;;;;;20.13;18.13;;;20.70;99.90;;;;;;5126935;27;20754;-78
2023/07/01 02:54:20;;;;;;;19.77;17.93;;;20.70;99.90;;;;;;5127476;27;20178;-78
2023/07/01 02:56:45;;;;;;;17.80;16.10;;;20.70;99.90;;;;;;5127262;27;20270;-78
2023/07/01 02:59:11;;;;;;;19.03;17.13;;;20.70;99.90;;;;;;5127168;27;20548;-79
2023/07/01 03:01:37;;;;;;;19.13;17.30;;;20.70;99.90;;;;;;5128638;27;20291;-78
2023/07/01 03:04:06;;;;;;;18.70;16.90;;;20.70;99.90;;;;;;5128830;27;20431;-78
2023/07/01 03:06:31;;;;;;;18.53;16.83;;;20.70;99.90;;;;;;5128676;27;20194;-79
2023/07/01 03:08:57;;;;;;;18.93;17.20;;;20.60;99.90;;;;;;5128434;27;20486;-78
2023/07/01 03:11:23;;;;;;;22.03;17.97;;;20.60;99.90;;;;;;5128389;27;20673;-78
2023/07/01 03:13:48;;;;;;;18.87;16.80;;;20.60;99.90;;;;;;5127230;27;20700;-79
2023/07/01 03:16:14;;;;;;;19.30;17.47;;;20.60;99.90;;;;;;5126964;27;20304;-77
2023/07/01 03:18:40;;;;;;;19.77;16.33;;;20.60;99.90;;;;;;5128385;27;20171;-78
2023/07/01 03:21:05;;;;;;;17.93;16.13;;;20.50;99.90;;;;;;5127029;27;20214;-78
2023/07/01 03:23:31;;;;;;;18.67;16.83;;;20.50;99.90;;;;;;5128877;27;20175;-78
2023/07/01 03:25:57;;;;;;;17.40;15.50;;;20.50;99.90;;;;;;5128817;27;20258;-77
2023/07/01 03:28:23;;;;;;;18.70;16.70;;;20.50;99.90;;;;;;5128959;27;20335;-78
2023/07/01 03:30:48;;;;;;;18.63;16.73;;;20.50;99.90;;;;;;5128108;27;20418;-78
2023/07/01 03:33:17;;;;;;;18.27;16.47;;;20.50;99.90;;;;;;5126971;27;20228;-77
2023/07/01 03:35:43;;;;;;;22.33;17.23;;;20.50;99.90;;;;;;5126379;27;20186;-78
2023/07/01 03:38:08;;;;;;;17.70;16.00;;;20.50;99.90;;;;;;5127195;27;20434;-78
2023/07/01 03:40:34;;;;;;;17.87;16.13;;;20.50;99.90;;;;;;5127675;28;20463;-78
2023/07/01 03:43:00;;;;;;;17.33;15.00;;;20.50;99.90;;;;;;5128194;28;20284;-78
2023/07/01 03:45:25;;;;;;;17.47;15.67;;;20.40;99.90;;;;;;5128062;28;20688;-78
2023/07/01 03:47:51;;;;;;;17.87;16.17;;;20.50;99.90;;;;;;5125890;28;20201;-77
2023/07/01 03:50:17;;;;;;;18.07;16.07;;;20.40;99.90;;;;;;5127131;27;20265;-78
2023/07/01 03:52:43;;;;;;;16.93;15.30;;;20.40;99.90;;;;;;5128228;28;20193;-78
2023/07/01 03:55:14;;;;;;;15.03;13.57;;;20.50;99.90;;;;;;5128208;28;20206;-78
2023/07/01 03:57:40;;;;;;;17.40;15.90;;;20.40;99.90;;;;;;5127016;28;20199;-78
2023/07/01 04:00:19;;;;;;;17.77;15.77;;;20.50;99.90;;;;;;5127835;27;20746;-78
2023/07/01 04:02:49;;;;;;;17.93;15.60;;;20.50;99.90;;;;;;5125454;28;20454;-78
2023/07/01 04:05:15;;;;;;;17.43;13.90;;;20.50;99.90;;;;;;5126162;28;21055;-77
2023/07/01 04:07:42;;;;;;;17.60;15.50;;;20.50;99.90;;;;;;5128218;28;20450;-77
2023/07/01 04:10:09;;;;;;;17.03;15.43;;;20.50;99.90;;;;;;5127950;28;20668;-77
2023/07/01 04:12:35;;;;;;;17.23;15.73;;;20.50;99.90;;;;;;5127957;28;20422;-77
2023/07/01 04:15:03;;;;;;;18.40;16.50;;;20.50;99.90;;;;;;5126383;28;20423;-78
2023/07/01 04:17:29;;;;;;;16.60;15.00;;;20.60;99.90;;;;;;5126350;28;20459;-79
2023/07/01 04:19:55;;;;;;;19.30;16.70;;;20.50;99.90;;;;;;5126761;28;20555;-78
2023/07/01 04:22:23;;;;;;;17.53;15.87;;;20.50;99.90;;;;;;5126000;28;20527;-78
2023/07/01 04:24:48;;;;;;;18.27;16.53;;;20.60;99.90;;;;;;5126200;28;20472;-78
2023/07/01 04:27:14;;;;;;;17.80;15.90;;;20.60;99.90;;;;;;5126322;28;20427;-78
2023/07/01 04:29:40;;;;;;;16.60;15.00;;;20.60;99.90;;;;;;5126177;28;20209;-78
2023/07/01 04:32:05;;;;;;;17.37;15.80;;;20.70;99.90;;;;;;5126004;28;20683;-78
2023/07/01 04:34:31;;;;;;;15.93;14.43;;;20.70;99.90;;;;;;5126829;28;20181;-78
2023/07/01 04:36:57;;;;;;;16.23;14.67;;;20.80;99.90;;;;;;5127477;28;20519;-78
2023/07/01 04:39:23;;;;;;;18.43;16.00;;;20.80;99.90;;;;;;5126177;28;20178;-79
2023/07/01 04:41:49;;;;;;;15.60;14.00;;;20.90;99.90;;;;;;5127765;28;20221;-78
2023/07/01 04:44:16;;;;;;;16.33;14.73;;;21.00;99.90;;;;;;5124656;28;20419;-78
2023/07/01 04:46:41;;;;;;;22.20;14.80;;;21.10;99.90;;;;;;5127473;27;20435;-78
2023/07/01 04:49:09;;;;;;;16.83;15.10;;;21.10;99.90;;;;;;5129209;27;20399;-79
2023/07/01 04:51:36;;;;;;;17.27;15.47;;;21.20;99.90;;;;;;5128017;27;20234;-79
2023/07/01 04:54:04;;;;;;;15.53;14.13;;;21.30;99.90;;;;;;5131139;27;20407;-78
2023/07/01 04:56:30;;;;;;;15.73;14.20;;;21.30;99.90;;;;;;5131486;27;20427;-78
2023/07/01 04:58:56;;;;;;;14.90;13.40;;;21.40;99.90;;;;;;5131109;27;20395;-79
2023/07/01 05:01:21;;;;;;;14.37;13.17;;;21.50;99.90;;;;;;5130893;27;20450;-79
2023/07/01 05:03:47;;;;;;;15.87;14.37;;;21.60;99.90;;;;;;5130029;27;20514;-79
2023/07/01 05:06:12;;;;;;;14.83;13.40;;;21.60;99.90;;;;;;5129223;27;20686;-78
2023/07/01 05:08:38;;;;;;;14.80;13.30;;;21.60;99.90;;;;;;5127831;27;20628;-78
2023/07/01 05:11:04;;;;;;;15.27;13.70;;;21.70;99.90;;;;;;5127875;27;20183;-78
2023/07/01 05:13:29;;;;;;;15.27;13.77;;;21.80;99.90;;;;;;5129706;27;20214;-78
2023/07/01 05:15:55;;;;;;;16.90;13.13;;;21.80;99.90;;;;;;5128625;27;20179;-78
2023/07/01 05:18:21;;;;;;;14.47;13.17;;;21.80;99.90;;;;;;5129820;27;20254;-78
2023/07/01 05:20:47;;;;;;;15.83;14.17;;;21.80;99.90;;;;;;5130627;27;20690;-78
2023/07/01 05:23:12;;;;;;;18.30;12.53;;;21.90;99.90;;;;;;5130863;27;20202;-78
2023/07/01 05:25:38;;;;;;;14.90;13.50;;;22.00;99.90;;;;;;5130978;27;20277;-79
2023/07/01 05:28:04;;;;;;;13.73;12.40;;;22.00;99.90;;;;;;5130852;27;20196;-78
2023/07/01 05:30:29;;;;;;;15.70;14.13;;;22.10;99.90;;;;;;5130796;27;20724;-78
2023/07/01 05:32:55;;;;;;;15.10;13.83;;;22.20;99.90;;;;;;5128997;27;20199;-78
2023/07/01 05:35:21;;;;;;;14.13;12.73;;;22.20;99.90;;;;;;5130621;27;20537;-79
2023/07/01 05:37:46;;;;;;;13.17;11.90;;;22.30;99.90;;;;;;5130611;27;20247;-79
2023/07/01 05:40:12;;;;;;;16.80;13.30;;;22.40;99.90;;;;;;5129902;27;20203;-79
2023/07/01 05:42:38;;;;;;;13.57;12.47;;;22.50;99.90;;;;;;5130700;27;20188;-79
2023/07/01 05:45:05;;;;;;;15.23;13.83;;;22.60;99.90;;;;;;5129008;27;20183;-78
2023/07/01 05:47:31;;;;;;;14.03;12.83;;;22.70;99.90;;;;;;5130229;27;20444;-79
2023/07/01 05:49:58;;;;;;;15.23;13.00;;;22.80;99.90;;;;;;5129312;27;20508;-79
2023/07/01 05:52:23;;;;;;;13.37;11.93;;;22.90;99.90;;;;;;5129742;27;20509;-78
2023/07/01 05:54:49;;;;;;;13.17;11.73;;;22.90;99.90;;;;;;5129718;27;20522;-78
2023/07/01 05:57:15;;;;;;;13.10;12.00;;;23.00;99.90;;;;;;5129171;27;20539;-79
2023/07/01 05:59:40;;;;;;;14.17;12.67;;;23.10;99.90;;;;;;5129893;27;20189;-78
2023/07/01 06:02:07;;;;;;;14.23;11.90;;;23.20;99.90;;;;;;5129799;27;20187;-79
2023/07/01 06:04:33;;;;;;;14.23;12.93;;;23.20;99.90;;;;;;5129937;27;20180;-79
2023/07/01 06:06:59;;;;;;;12.97;11.60;;;23.30;99.90;;;;;;5129890;27;20475;-78
2023/07/01 06:09:24;;;;;;;12.53;11.33;;;23.40;99.90;;;;;;5129814;27;20938;-78
2023/07/01 06:11:50;;;;;;;14.10;12.67;;;23.50;99.90;;;;;;5130189;27;20686;-78
2023/07/01 06:14:16;;;;;;;13.07;11.87;;;23.60;99.90;;;;;;5127893;27;20186;-78
2023/07/01 06:16:41;;;;;;;12.90;11.70;;;23.70;99.90;;;;;;5128311;27;20256;-78
2023/07/01 06:19:07;;;;;;;12.80;11.80;;;23.80;99.90;;;;;;5128335;27;20217;-78
2023/07/01 06:21:33;;;;;;;13.10;11.80;;;24.00;99.90;;;;;;5129337;27;20250;-79
2023/07/01 06:23:58;;;;;;;13.03;11.67;;;24.10;99.90;;;;;;5127988;27;20277;-78
2023/07/01 06:26:24;;;;;;;12.23;10.87;;;24.20;99.90;;;;;;5128095;27;20201;-79
2023/07/01 06:28:50;;;;;;;12.17;10.97;;;24.30;99.90;;;;;;5127992;27;20171;-79
2023/07/01 06:31:15;;;;;;;12.30;11.20;;;24.40;99.90;;;;;;5129185;27;20503;-79
2023/07/01 06:33:41;;;;;;;11.77;10.67;;;24.40;99.90;;;;;;5127967;27;20597;-79
2023/07/01 06:36:07;;;;;;;10.73;9.50;;;24.50;99.90;;;;;;5127864;27;20573;-78
2023/07/01 06:38:33;;;;;;;11.10;10.00;;;24.60;99.90;;;;;;5129207;27;20202;-78
2023/07/01 06:40:59;;;;;;;9.93;9.13;;;24.70;99.90;;;;;;5127936;27;20961;-78
2023/07/01 06:43:24;;;;;;;10.20;9.10;;;24.80;99.90;;;;;;5127737;27;20201;-78
2023/07/01 06:45:50;;;;;;;10.40;9.40;;;24.90;99.90;;;;;;5128309;27;20179;-78
2023/07/01 06:48:16;;;;;;;13.03;10.03;;;25.00;99.90;;;;;;5128120;27;20191;-79
2023/07/01 06:50:42;;;;;;;9.47;8.57;;;25.10;99.90;;;;;;5128084;27;20410;-79
2023/07/01 06:53:07;;;;;;;11.63;9.03;;;25.20;99.90;;;;;;5127445;27;20195;-79
2023/07/01 06:55:33;;;;;;;10.43;9.53;;;25.20;99.90;;;;;;5125479;27;20762;-78
2023/07/01 06:58:02;;;;;;;10.30;9.40;;;25.30;99.90;;;;;;5129114;27;20198;-78
2023/07/01 07:00:29;;;;;;;11.40;8.83;;;25.40;99.90;;;;;;5127151;27;20471;-79
2023/07/01 07:02:55;;;;;;;11.00;9.00;;;25.50;99.90;;;;;;5126950;27;20430;-79
2023/07/01 07:05:21;;;;;;;10.23;9.33;;;25.60;99.90;;;;;;5125442;27;20426;-78
2023/07/01 07:07:46;;;;;;;8.80;8.10;;;25.70;99.90;;;;;;5125453;27;20470;-79
2023/07/01 07:10:12;;;;;;;8.90;8.20;;;25.80;99.90;;;;;;5126432;27;20910;-78
2023/07/01 07:12:38;;;;;;;10.00;9.10;;;25.90;99.90;;;;;;5127100;27;20182;-79
2023/07/01 07:15:04;;;;;;;9.67;8.63;;;26.00;99.90;;;;;;5126380;27;20245;-79
2023/07/01 07:17:29;;;;;;;8.20;7.50;;;26.10;99.90;;;;;;5127073;27;20664;-78
2023/07/01 07:19:55;;;;;;;10.57;8.77;;;26.20;99.90;;;;;;5128693;27;20467;-79
2023/07/01 07:22:21;;;;;;;12.37;8.60;;;26.30;99.90;;;;;;5126855;27;20564;-79
2023/07/01 07:24:47;;;;;;;11.90;8.57;;;26.40;99.90;;;;;;5128595;27;20171;-79
2023/07/01 07:27:13;;;;;;;9.27;8.47;;;26.50;99.90;;;;;;5128381;27;20431;-79
2023/07/01 07:29:39;;;;;;;8.50;7.70;;;26.60;99.90;;;;;;5128508;27;20690;-78
2023/07/01 07:32:06;;;;;;;9.50;7.17;;;26.70;99.90;;;;;;5128971;27;20639;-78
2023/07/01 07:34:32;;;;;;;8.90;7.20;;;26.80;99.90;;;;;;5128237;27;20740;-79
2023/07/01 07:36:58;;;;;;;8.50;7.67;;;26.90;99.90;;;;;;5126846;27;20475;-79
2023/07/01 07:39:23;;;;;;;7.20;6.70;;;27.00;99.90;;;;;;5127950;27;20467;-79
2023/07/01 07:41:52;;;;;;;8.00;7.07;;;27.20;99.90;;;;;;5128032;27;20480;-79
2023/07/01 07:44:18;;;;;;;6.80;6.20;;;27.20;99.90;;;;;;5128113;28;20180;-78
2023/07/01 07:46:44;;;;;;;6.20;5.60;;;27.30;99.90;;;;;;5128184;28;20714;-79
2023/07/01 07:49:10;;;;;;;5.77;5.37;;;27.40;99.90;;;;;;5127936;28;20440;-79
2023/07/01 07:51:36;;;;;;;4.80;4.27;;;27.50;99.90;;;;;;5126328;28;20748;-79
2023/07/01 07:54:02;;;;;;;5.47;4.13;;;27.50;99.90;;;;;;5127352;28;20404;-78
2023/07/01 07:56:28;;;;;;;4.83;4.33;;;27.70;98.30;;;;;;5127882;28;20428;-79
2023/07/01 07:58:53;;;;;;;6.17;5.67;;;27.80;96.90;;;;;;5128137;28;20174;-78
2023/07/01 08:01:19;;;;;;;5.50;5.00;;;27.90;97.00;;;;;;5126381;28;20218;-79
2023/07/01 08:03:45;;;;;;;5.67;5.10;;;27.90;99.10;;;;;;5126612;28;20174;-78
2023/07/01 08:06:10;;;;;;;5.40;5.00;;;28.00;98.00;;;;;;5126730;28;20281;-79
2023/07/01 08:08:36;;;;;;;5.10;4.70;;;28.10;97.10;;;;;;5126419;28;20650;-79
2023/07/01 08:11:02;;;;;;;5.23;4.73;;;28.20;97.20;;;;;;5128220;28;20182;-79
2023/07/01 08:13:28;;;;;;;7.67;4.90;;;28.30;97.50;;;;;;5126629;28;20189;-79
2023/07/01 08:15:54;;;;;;;5.27;4.77;;;28.30;97.50;;;;;;5126399;28;20186;-79
2023/07/01 08:18:19;;;;;;;5.00;4.50;;;28.40;96.10;;;;;;5126606;28;20204;-79
2023/07/01 08:20:46;;;;;;;6.63;4.73;;;28.60;95.90;;;;;;5127800;28;20477;-79
2023/07/01 08:23:13;;;;;;;5.67;5.03;;;28.60;95.70;;;;;;5130102;27;20573;-79
2023/07/01 08:25:42;;;;;;;5.43;4.93;;;28.60;96.60;;;;;;5131946;27;20545;-79
2023/07/01 08:28:08;;;;;;;4.90;4.50;;;28.70;96.00;;;;;;5130638;27;20573;-79
2023/07/01 08:30:34;;;;;;;5.20;4.80;;;28.80;96.80;;;;;;5131533;27;20412;-79
2023/07/01 08:33:00;;;;;;;5.53;5.07;;;28.80;97.10;;;;;;5131882;27;20435;-79
2023/07/01 08:35:26;;;;;;;5.43;4.23;;;28.90;96.40;;;;;;5131740;27;20426;-79
2023/07/01 08:37:52;;;;;;;5.93;4.30;;;29.10;95.20;;;;;;5131803;27;20992;-79
2023/07/01 08:40:17;;;;;;;5.50;5.00;;;29.20;95.20;;;;;;5131486;27;20215;-79
2023/07/01 08:42:50;;;;;;;5.27;4.80;;;29.20;94.70;;;;;;5130223;27;20289;-79
2023/07/01 08:45:20;;;;;;;4.07;3.73;;;29.20;95.00;;;;;;5131285;27;20421;-79
2023/07/01 08:47:46;;;;;;;7.23;5.00;;;29.30;95.00;;;;;;5131389;27;20434;-78
2023/07/01 08:50:18;;;;;;;4.60;4.20;;;29.40;94.60;;;;;;5130772;27;20553;-79
2023/07/01 08:52:47;;;;;;;5.10;4.70;;;29.40;94.60;;;;;;5131320;27;20203;-79
2023/07/01 08:55:13;;;;;;;4.83;4.13;;;29.50;94.20;;;;;;5127085;27;20434;-78
2023/07/01 08:57:40;;;;;;;5.20;4.80;;;29.50;94.40;;;;;;5112841;27;20477;-79
2023/07/01 09:00:09;;;;;;;6.50;5.87;;;29.60;94.10;;;;;;5129815;27;20461;-79
2023/07/01 09:02:36;;;;;;;4.73;4.17;;;29.60;94.30;;;;;;5129519;27;20446;-79
2023/07/01 09:05:03;;;;;;;5.33;4.93;;;29.70;94.30;;;;;;5131198;27;20479;-79
2023/07/01 09:07:31;;;;;;;6.10;4.73;;;29.70;94.20;;;;;;5130939;27;20426;-79
2023/07/01 09:09:58;;;;;;;6.30;5.50;;;29.80;94.30;;;;;;5130982;27;20535;-79
2023/07/01 09:12:27;;;;;;;5.70;5.30;;;29.90;94.40;;;;;;5129729;27;20970;-79
2023/07/01 09:15:00;;;;;;;5.50;5.00;;;29.90;94.20;;;;;;5130420;27;20418;-79
2023/07/01 09:17:36;;;;;;;5.87;5.27;;;29.90;94.20;;;;;;5127915;27;20663;-79
2023/07/01 09:20:05;;;;;;;6.93;5.43;;;29.90;94.00;;;;;;5129299;27;20452;-79
2023/07/01 09:22:34;;;;;;;5.80;5.40;;;29.90;94.20;;;;;;5128921;27;20787;-79
2023/07/01 09:25:00;;;;;;;5.70;5.10;;;30.00;94.20;;;;;;5129010;27;20564;-79
2023/07/01 09:27:45;;;;;;;7.00;6.40;;;30.10;94.10;;;;;;5129123;27;20487;-79
2023/07/01 09:30:20;;;;;;;6.63;6.07;;;30.10;94.10;;;;;;5129135;27;20422;-79
2023/07/01 09:32:46;;;;;;;8.30;5.90;;;30.20;94.10;;;;;;5129132;27;20980;-78
2023/07/01 09:35:12;;;;;;;6.70;6.10;;;30.20;94.20;;;;;;5126114;27;20437;-79
2023/07/01 09:37:38;;;;;;;6.63;5.93;;;30.20;94.30;;;;;;5108319;28;20445;-79
2023/07/01 09:40:25;;;;;;;6.37;5.90;;;30.20;94.20;;;;;;5108003;28;20212;-79
2023/07/01 09:42:55;;;;;;;5.80;5.30;;;30.20;93.80;;;;;;5108252;28;20962;-79
2023/07/01 09:45:21;;;;;;;6.30;5.63;;;30.20;94.10;;;;;;5108208;28;20435;-79
2023/07/01 09:47:54;;;;;;;7.33;5.47;;;30.20;93.80;;;;;;5108381;28;20519;-79
2023/07/01 09:50:29;;;;;;;7.43;6.00;;;30.30;94.10;;;;;;5107663;28;20470;-79
2023/07/01 09:52:55;;;;;;;6.73;6.07;;;30.30;93.90;;;;;;5106463;28;20447;-79
2023/07/01 09:55:21;;;;;;;5.93;5.53;;;30.20;93.60;;;;;;5107994;28;20719;-79
2023/07/01 09:57:47;;;;;;;7.40;6.70;;;30.30;93.80;;;;;;5107783;28;20500;-79
2023/07/01 10:00:16;;;;;;;6.50;6.00;;;30.30;93.80;;;;;;5106368;28;20779;-79
2023/07/01 10:02:46;;;;;;;6.90;6.20;;;30.30;93.80;;;;;;5106580;28;20823;-79
2023/07/01 10:05:13;;;;;;;6.93;6.30;;;30.30;93.90;;;;;;5106356;28;20801;-79
2023/07/01 10:07:40;;;;;;;6.70;6.20;;;30.40;93.80;;;;;;5106440;28;20473;-79
2023/07/01 10:10:11;;;;;;;7.00;6.30;;;30.40;93.50;;;;;;5107339;28;20463;-79
2023/07/01 10:12:40;;;;;;;7.00;6.27;;;30.40;93.40;;;;;;5109180;28;20439;-79
2023/07/01 10:15:09;;;;;;;7.00;6.40;;;30.40;93.40;;;;;;5109287;28;20441;-79
2023/07/01 10:17:48;;;;;;;7.93;7.33;;;30.40;93.50;;;;;;5109307;28;20515;-79
2023/07/01 10:20:30;;;;;;;7.53;6.57;;;30.40;93.40;;;;;;5109239;28;20844;-79
2023/07/01 10:23:00;;;;;;;6.40;5.90;;;30.40;93.40;;;;;;5109277;28;20973;-79
2023/07/01 10:25:37;;;;;;;6.90;6.40;;;30.40;93.40;;;;;;5116489;27;20470;-79
2023/07/01 10:28:03;;;;;;;7.20;6.57;;;30.40;93.30;;;;;;5129769;27;20425;-79
2023/07/01 10:30:44;;;;;;;7.50;6.90;;;30.40;93.20;;;;;;5127836;27;20425;-79
2023/07/01 10:33:33;;;;;;;8.20;6.37;;;30.50;93.20;;;;;;5128595;27;20447;-80
2023/07/01 10:36:06;;;;;;;6.70;6.00;;;30.50;93.10;;;;;;5129562;27;20419;-79
2023/07/01 10:38:33;;;;;;;6.00;5.60;;;30.50;93.00;;;;;;5126811;27;20415;-79
2023/07/01 10:40:59;;;;;;;6.47;5.97;;;30.50;93.00;;;;;;5128976;27;20474;-79
2023/07/01 10:43:33;;;;;;;6.70;6.07;;;30.50;93.20;;;;;;5125301;27;20463;-79
2023/07/01 10:46:08;;;;;;;7.90;7.00;;;30.60;93.00;;;;;;5126504;27;20426;-79
2023/07/01 10:48:38;;;;;;;7.03;5.93;;;30.60;93.20;;;;;;5126468;27;21118;-79
2023/07/01 10:51:05;;;;;;;6.67;6.03;;;30.60;93.00;;;;;;5125810;27;21039;-79
2023/07/01 10:53:31;;;;;;;6.50;6.00;;;30.60;93.00;;;;;;5129175;27;20938;-79
2023/07/01 10:56:15;;;;;;;6.97;6.00;;;30.50;93.00;;;;;;5128423;27;21086;-79
2023/07/01 10:58:41;;;;;;;6.53;6.03;;;30.50;92.90;;;;;;5127871;27;20845;-79
2023/07/01 11:01:07;;;;;;;6.60;6.03;;;30.50;93.80;;;;;;5127509;27;20467;-79
2023/07/01 11:03:36;;;;;;;6.97;6.37;;;30.50;93.30;;;;;;5127665;27;20406;-79
2023/07/01 11:06:03;;;;;;;6.30;5.80;;;30.50;93.20;;;;;;5128131;27;20816;-79
2023/07/01 11:08:30;;;;;;;6.40;5.80;;;30.60;93.30;;;;;;5125866;27;20845;-79
2023/07/01 11:10:56;;;;;;;7.83;6.10;;;30.50;93.20;;;;;;5126493;27;20458;-79
2023/07/01 11:13:23;;;;;;;6.23;5.77;;;30.60;93.50;;;;;;5126975;27;20849;-79
2023/07/01 11:16:09;;;;;;;6.40;5.90;;;30.70;93.30;;;;;;5125065;27;20434;-79
2023/07/01 11:18:49;;;;;;;6.17;5.67;;;30.70;93.10;;;;;;5126779;27;20490;-79
2023/07/01 11:21:19;;;;;;;6.47;5.97;;;30.80;92.90;;;;;;5125504;27;20466;-79
2023/07/01 11:23:59;;;;;;;7.97;6.70;;;30.80;93.10;;;;;;5126935;27;20480;-79
2023/07/01 11:26:32;;;;;;;7.23;6.73;;;30.80;93.00;;;;;;5128125;27;20427;-79
2023/07/01 11:28:57;;;;;;;6.93;6.37;;;30.80;93.20;;;;;;5127241;27;20449;-79
2023/07/01 11:31:25;;;;;;;6.60;6.00;;;30.80;93.10;;;;;;5128662;27;20923;-79
2023/07/01 11:33:53;;;;;;;7.73;7.03;;;30.80;92.90;;;;;;5128573;27;20863;-79
2023/07/01 11:36:30;;;;;;;7.40;6.50;;;30.90;92.90;;;;;;5128602;27;20919;-79
2023/07/01 11:39:02;;;;;;;6.80;6.30;;;31.00;92.50;;;;;;5126634;27;20421;-79
2023/07/01 11:41:28;;;;;;;7.00;6.40;;;31.00;92.20;;;;;;5126804;27;20763;-80
2023/07/01 11:43:54;;;;;;;6.70;6.20;;;31.00;91.60;;;;;;5126598;27;20423;-79
2023/07/01 11:46:31;;;;;;;7.10;6.50;;;31.00;91.70;;;;;;5126841;27;20187;-79
2023/07/01 11:48:57;;;;;;;11.20;6.00;;;31.00;91.80;;;;;;5126879;28;20764;-79
2023/07/01 11:51:44;;;;;;;6.67;6.17;;;31.10;90.80;;;;;;5127997;27;20466;-79
2023/07/01 11:54:10;;;;;;;6.03;5.63;;;31.20;91.00;;;;;;5126957;28;20182;-79
2023/07/01 11:56:35;;;;;;;7.07;6.47;;;31.20;90.80;;;;;;5129569;27;20527;-79
2023/07/01 11:59:01;;;;;;;7.33;6.60;;;31.30;90.80;;;;;;5130542;27;20279;-80
2023/07/01 12:01:28;;;;;;;8.47;6.77;;;31.30;90.70;;;;;;5130766;27;20215;-79
2023/07/01 12:03:54;;;;;;;8.70;7.47;;;31.40;90.80;;;;;;5130802;27;20179;-80
2023/07/01 12:06:22;;;;;;;6.80;4.87;;;31.40;90.80;;;;;;5130555;27;20471;-80
2023/07/01 12:08:58;;;;;;;8.47;7.20;;;31.30;90.70;;;;;;5129707;27;20265;-79
2023/07/01 12:11:25;;;;;;;8.37;7.70;;;31.20;90.70;;;;;;5132153;27;20442;-79
2023/07/01 12:13:52;;;;;;;8.57;7.87;;;31.10;90.50;;;;;;5132026;27;20895;-79
2023/07/01 12:16:18;;;;;;;10.23;7.10;;;31.10;90.90;;;;;;5130684;27;20968;-79
2023/07/01 12:18:45;;;;;;;8.07;7.47;;;31.10;90.80;;;;;;5130501;27;20415;-79
2023/07/01 12:21:11;;;;;;;7.60;7.00;;;31.10;91.00;;;;;;5130416;27;21005;-79
2023/07/01 12:23:41;;;;;;;7.20;6.70;;;31.10;90.70;;;;;;5130677;27;20403;-79
2023/07/01 12:26:07;;;;;;;6.73;6.23;;;31.20;90.80;;;;;;5131789;27;20543;-79
2023/07/01 12:28:33;;;;;;;13.90;7.53;;;31.30;90.80;;;;;;5131542;27;20549;-79
2023/07/01 12:30:58;;;;;;;9.20;7.40;;;31.30;90.70;;;;;;5131644;27;20514;-79
2023/07/01 12:33:24;;;;;;;7.83;7.13;;;31.30;90.80;;;;;;5132093;27;20183;-80
2023/07/01 12:35:51;;;;;;;7.63;7.03;;;31.40;90.60;;;;;;5131671;27;20188;-79
2023/07/01 12:38:16;;;;;;;7.67;7.07;;;31.30;90.30;;;;;;5131779;27;20183;-80